Flight Track Log - Related Links

Times and Time Zones

All times are in EDT time to prevent confusion due to time zone crossing. See the ASQ5153 flight status page for this flight to view local times or setup timezone preferences in your user account.

Time Position Orientation Groundspeed Altitude Reporting Facility
EDT Latitude Longitude Course Direction KTS MPH feet Rate Location/Type
Sun 06:30:16 PM 29.6908 -82.2900 347° North 162 186 800  Level Jacksonville Center
Sun 06:31:41 PM 29.7600 -82.3089 33° Northeast 224 258 4,000 2,055 Climbing Jacksonville Center
Sun 06:32:42 PM 29.8203 -82.2631 51° Northeast 271 312 5,800 1,968 Climbing Jacksonville Center
Sun 06:33:46 PM 29.8658 -82.1981 50° Northeast 277 319 8,100 2,268 Climbing Jacksonville Center
Sun 06:34:49 PM 29.9258 -82.1161 53° Northeast 290 334 10,600 1,550 Climbing Jacksonville Center
Sun 06:35:46 PM 29.9736 -82.0436 52° Northeast 367 422 11,200 1,077 Climbing Jacksonville Center
Sun 06:36:46 PM 30.0333 -81.9544 51° Northeast 367 422 12,700 1,650 Climbing Jacksonville Center
Sun 06:37:46 PM 30.0953 -81.8650 53° Northeast 362 417 14,500 1,700 Climbing Jacksonville Center
Sun 06:38:46 PM 30.1572 -81.7708 50° Northeast 362 417 16,100 1,650 Climbing Jacksonville Center
Sun 06:39:46 PM 30.2294 -81.6714 53° Northeast 367 422 17,800 1,300 Climbing Jacksonville Center
Sun 06:40:46 PM 30.2953 -81.5717 15° North 373 429 18,700 800 Climbing Jacksonville Center
Sun 06:41:46 PM 30.3931 -81.5417 333° Northwest 368 423 19,400 650 Climbing Jacksonville Center
Sun 06:42:46 PM 30.4875 -81.5981 334° Northwest 317 365 20,000 700 Climbing Jacksonville Center
Sun 06:43:46 PM 30.5819 -81.6522 333° Northwest 342 394 20,800 1,000 Climbing Jacksonville Center
Sun 06:44:46 PM 30.6786 -81.7089 333° Northwest 362 417 22,000 1,100 Climbing Jacksonville Center
Sun 06:45:46 PM 30.7711 -81.7636 335° Northwest 367 422 23,000 900 Climbing Jacksonville Center
Sun 06:46:46 PM 30.8653 -81.8156 332° Northwest 372 428 23,800 750 Climbing Jacksonville Center
Sun 06:47:46 PM 30.9578 -81.8728 334° Northwest 372 428 24,500 600 Climbing Jacksonville Center
Sun 06:48:46 PM 31.0542 -81.9275 333° Northwest 378 435 25,000 496 Climbing Jacksonville Center
Sun 06:49:47 PM 31.1569 -81.9894 334° Northwest 392 451 25,500 496 Climbing Jacksonville Center
Sun 06:50:47 PM 31.2575 -82.0467 330° Northwest 398 458 26,000 500 Climbing Jacksonville Center
Sun 06:51:47 PM 31.3583 -82.1142 335° Northwest 398 458 26,500 500 Climbing Jacksonville Center
Sun 06:52:47 PM 31.4608 -82.1692 333° Northwest 404 465 27,000 250 Climbing Jacksonville Center
Sun 06:53:47 PM 31.5636 -82.2294 332° Northwest 404 465 27,000  Level Jacksonville Center
Sun 06:54:47 PM 31.6639 -82.2922 334° Northwest 410 472 27,000  Level Jacksonville Center
Sun 06:57:40 PM 31.9494 -82.4600 333° Northwest 408 470 27,000  Level Atlanta Center
Sun 06:58:40 PM 32.0378 -82.5125 333° Northwest 379 436 27,000  Level Atlanta Center
Sun 06:59:40 PM 32.1239 -82.5650 333° Northwest 348 400 27,000  Level Atlanta Center
Sun 07:00:40 PM 32.2081 -82.6150 333° Northwest 333 383 27,000  Level Atlanta Center
Sun 07:01:40 PM 32.2942 -82.6678 333° Northwest 327 376 27,000  Level Atlanta Center
Sun 07:02:40 PM 32.3783 -82.7181 333° Northwest 334 384 27,000  Level Atlanta Center
Sun 07:03:40 PM 32.4686 -82.7733 329° Northwest 345 397 27,000  Level Atlanta Center
Sun 07:04:40 PM 32.5611 -82.8386 311° West 351 404 27,000 -300 Level Atlanta Center
Sun 07:05:40 PM 32.6267 -82.9289 310° West 359 413 26,400 -500 Descending Atlanta Center
Sun 07:06:40 PM 32.6878 -83.0169 310° West 354 407 26,000 -450 Descending Atlanta Center
Sun 07:07:40 PM 32.7450 -83.0978 307° West 354 407 25,500 -500 Descending Atlanta Center
Sun 07:08:40 PM 32.8083 -83.1986 310° West 354 407 25,000 -700 Descending Atlanta Center
Sun 07:09:40 PM 32.8714 -83.2869 307° West 354 407 24,100 -1,200 Descending Atlanta Center
Sun 07:10:40 PM 32.9219 -83.3658 309° West 348 400 22,600 -1,550 Descending Atlanta Center
Sun 07:11:40 PM 32.9914 -83.4692 308° West 348 400 21,000 -800 Descending Atlanta Center
Sun 07:12:40 PM 33.0481 -83.5556 311° West 348 400 21,000  Level Atlanta Center
Sun 07:13:40 PM 33.1006 -83.6272 13° North 340 391 21,000  Level Atlanta Center
Sun 07:14:40 PM 33.1672 -83.6094 83° East 246 283 21,000 -350 Level Atlanta Center
Sun 07:15:40 PM 33.1775 -83.5150 87° East 197 227 20,300 -950 Descending Atlanta Center
Sun 07:16:40 PM 33.1811 -83.4208 111° Southeast 230 265 19,100 -591 Descending Atlanta Center
Sun 07:17:52 PM 33.1556 -83.3417 162° South 235 270 19,000 -45 Descending Atlanta Center
Sun 07:18:52 PM 33.0636 -83.3053 170° South 245 282 19,000 -500 Level Atlanta Center
Sun 07:19:52 PM 32.9861 -83.2886 211° Southwest 265 305 18,000 -1,150 Descending Atlanta Center
Sun 07:20:52 PM 32.9197 -83.3361 214° Southwest 266 306 16,700 -1,400 Descending Atlanta Center
Sun 07:21:52 PM 32.8553 -83.3883 263° West 268 308 15,200 -1,350 Descending Atlanta Center
Sun 07:22:52 PM 32.8472 -83.4678 322° Northwest 245 282 14,000 -600 Descending Atlanta Center
Sun 07:23:52 PM 32.9019 -83.5192 323° Northwest 191 220 14,000  Level Atlanta Center
Sun 07:24:52 PM 32.9564 -83.5683 324° Northwest 213 245 14,000  Level Atlanta Center
Sun 07:25:52 PM 33.0086 -83.6128 321° Northwest 224 258 14,000  Level Atlanta Center
Sun 07:28:19 PM 33.1667 -83.7667 320° Northwest 306 352 14,000  Level Atlanta TRACON
Sun 07:29:19 PM 33.2333 -83.8333 306° West 302 348 14,000 -48 Level Atlanta TRACON
Sun 07:30:25 PM 33.2833 -83.9167 309° West 295 339 13,900 -440 Descending Atlanta TRACON
Sun 07:33:52 PM 33.4497 -84.1633 309° West 295 339 12,000 -427 Descending Atlanta Center
Sun 07:34:52 PM 33.4978 -84.2356 306° West 289 333 12,000 -200 Level Atlanta Center
Sun 07:35:52 PM 33.5372 -84.3006 278° West 258 297 11,600 -1,319 Descending Atlanta Center
Sun 07:37:13 PM 33.5500 -84.4167 270° West 256 295 8,900 -2,408 Descending Atlanta TRACON
Sun 07:38:19 PM 33.5500 -84.5000 270° West 231 266 5,700 -2,381 Descending Atlanta TRACON
Sun 07:39:19 PM 33.5500 -84.5833 320° Northwest 228 262 3,900 -1,148 Descending Atlanta TRACON
Sun 07:40:14 PM 33.5833 -84.6167 59° Northeast 194 223 3,500 -520 Descending Atlanta TRACON
Sun 07:41:26 PM 33.6167 -84.5500 90° East 179 206 2,800 -727 Descending Atlanta TRACON
Sun 07:42:26 PM 33.6167 -84.5000 76° East 172 198 1,900 -900 Descending Atlanta TRACON
Sun 07:49:32 PM 33.6333 -84.4167 76° East  Level FlightAware Approximate

Login

Don't have an account? Register now (free) for customized features, flight alerts, and more!